Time;durP1;ratioP1;P1;durP2;ratioP2;P2;SDS_P1;SDS_P2;PMS_P1;PMS_P2;Temp;Humidity;BMP_temperature;BMP_pressure;BME280_temperature;BME280_humidity;BME280_pressure;Samples;Min_cycle;Max_cycle;Signal;HPM_P1;HPM_P2
2021/11/04 00:00:51;;;;;;;10.45;8.00;;;6.80;99.90;;;;;;5017747;28;20060;-85
2021/11/04 00:03:18;;;;;;;14.35;7.75;;;6.70;99.90;;;;;;5018149;28;20049;-85
2021/11/04 00:05:45;;;;;;;11.15;8.68;;;6.70;99.90;;;;;;5016425;28;20056;-85
2021/11/04 00:08:12;;;;;;;11.18;8.43;;;6.60;99.90;;;;;;5017694;28;20494;-84
2021/11/04 00:10:39;;;;;;;12.45;8.93;;;6.60;99.90;;;;;;5017387;28;20075;-84
2021/11/04 00:13:06;;;;;;;12.07;9.02;;;6.60;99.90;;;;;;5034858;28;20136;-85
2021/11/04 00:15:33;;;;;;;10.45;8.13;;;6.70;99.90;;;;;;5034980;28;20060;-85
2021/11/04 00:18:00;;;;;;;13.23;8.18;;;6.70;99.90;;;;;;5034802;28;20048;-85
2021/11/04 00:20:27;;;;;;;11.00;8.30;;;6.70;99.90;;;;;;5034833;28;20064;-85
2021/11/04 00:22:54;;;;;;;10.95;7.57;;;6.70;99.90;;;;;;5017591;28;20056;-85
2021/11/04 00:25:21;;;;;;;9.10;7.07;;;6.70;99.90;;;;;;5034503;28;20053;-85
2021/11/04 00:27:49;;;;;;;8.77;7.65;;;6.80;99.90;;;;;;5017209;28;20049;-85
2021/11/04 00:30:17;;;;;;;8.57;7.70;;;6.80;99.90;;;;;;5034617;28;20171;-85
2021/11/04 00:32:47;;;;;;;9.30;7.55;;;6.80;99.90;;;;;;5017811;28;20409;-86
2021/11/04 00:35:15;;;;;;;9.52;6.95;;;6.80;99.90;;;;;;5034834;28;20041;-85
2021/11/04 00:37:42;;;;;;;8.20;7.38;;;6.70;99.90;;;;;;5018050;28;20509;-85
2021/11/04 00:40:11;;;;;;;11.43;7.78;;;6.70;99.90;;;;;;5016754;28;20049;-85
2021/11/04 00:42:39;;;;;;;10.05;8.10;;;6.80;99.90;;;;;;5016697;28;20103;-85
2021/11/04 00:45:06;;;;;;;11.57;7.75;;;6.80;99.90;;;;;;5034371;28;20056;-85
2021/11/04 00:47:33;;;;;;;7.63;6.82;;;6.80;99.90;;;;;;5034432;28;20076;-85
2021/11/04 00:50:00;;;;;;;12.18;8.85;;;6.80;99.90;;;;;;5034115;28;20071;-85
2021/11/04 00:52:27;;;;;;;11.23;8.05;;;6.80;99.90;;;;;;5016371;28;20057;-85
2021/11/04 00:54:54;;;;;;;12.82;8.43;;;6.80;99.90;;;;;;5033882;28;20421;-85
2021/11/04 00:57:21;;;;;;;13.00;8.30;;;6.70;99.90;;;;;;5016699;28;20060;-85
2021/11/04 00:59:48;;;;;;;10.60;8.00;;;6.70;99.90;;;;;;5034319;28;20408;-85
2021/11/04 01:02:16;;;;;;;11.98;8.60;;;6.70;99.90;;;;;;5016622;28;20454;-85
2021/11/04 01:04:43;;;;;;;10.98;7.75;;;6.80;99.90;;;;;;5016742;28;20057;-85
2021/11/04 01:07:09;;;;;;;9.35;7.60;;;6.80;99.90;;;;;;5016669;28;20067;-85
2021/11/04 01:09:36;;;;;;;10.93;8.13;;;6.80;99.90;;;;;;5033661;28;20140;-85
2021/11/04 01:12:03;;;;;;;9.23;8.27;;;6.80;99.90;;;;;;5016810;28;20053;-85
2021/11/04 01:14:30;;;;;;;10.65;8.00;;;6.70;99.90;;;;;;5033971;28;20402;-85
2021/11/04 01:16:57;;;;;;;13.05;7.78;;;6.70;99.90;;;;;;5016422;28;20046;-85
2021/11/04 01:19:24;;;;;;;8.90;7.93;;;6.80;99.90;;;;;;5016467;28;20049;-85
2021/11/04 01:21:51;;;;;;;12.68;9.38;;;6.80;99.90;;;;;;5033805;28;20056;-85
2021/11/04 01:24:18;;;;;;;10.85;8.23;;;6.80;99.90;;;;;;5016368;28;20045;-85
2021/11/04 01:26:45;;;;;;;11.10;8.48;;;6.80;99.90;;;;;;5033446;28;20053;-85
2021/11/04 01:29:11;;;;;;;10.55;8.27;;;6.80;99.90;;;;;;5016233;28;20056;-85
2021/11/04 01:31:38;;;;;;;10.32;8.25;;;6.80;99.90;;;;;;5016142;28;20508;-85
2021/11/04 01:34:06;;;;;;;9.00;8.10;;;6.80;99.90;;;;;;5033465;28;20413;-84
2021/11/04 01:36:33;;;;;;;11.15;7.95;;;6.80;99.90;;;;;;5015714;28;20132;-85
2021/11/04 01:39:00;;;;;;;10.35;7.93;;;6.80;99.90;;;;;;5016319;28;20100;-85
2021/11/04 01:41:27;;;;;;;13.90;9.43;;;6.80;99.90;;;;;;5016220;28;20479;-84
2021/11/04 01:43:54;;;;;;;12.27;9.10;;;6.80;99.90;;;;;;5016161;28;20049;-85
2021/11/04 01:46:21;;;;;;;10.52;7.72;;;6.80;99.90;;;;;;5015771;28;20057;-85
2021/11/04 01:48:49;;;;;;;10.23;8.30;;;6.80;99.90;;;;;;5016172;28;20103;-85
2021/11/04 01:51:17;;;;;;;8.48;7.55;;;6.80;99.90;;;;;;5022367;28;20053;-85
2021/11/04 01:53:46;;;;;;;9.63;7.90;;;6.80;99.90;;;;;;5028703;28;20553;-85
2021/11/04 01:56:13;;;;;;;8.77;7.63;;;6.80;99.90;;;;;;5033361;28;20136;-85
2021/11/04 01:58:40;;;;;;;8.98;7.53;;;6.90;99.90;;;;;;5016136;28;20045;-85
2021/11/04 02:01:07;;;;;;;9.20;7.20;;;6.90;99.90;;;;;;5032848;28;20147;-85
2021/11/04 02:04:01;;;;;;;11.40;7.15;;;6.80;99.90;;;;;;5016423;28;20059;-86
2021/11/04 02:06:42;;;;;;;9.95;7.88;;;6.80;99.90;;;;;;5026996;28;20053;-85
2021/11/04 02:09:15;;;;;;;10.70;7.82;;;6.80;99.90;;;;;;5015600;28;20053;-86
2021/11/04 02:11:48;;;;;;;11.77;9.07;;;6.80;99.90;;;;;;5015409;28;20052;-85
2021/11/04 02:14:21;;;;;;;13.80;9.82;;;6.80;99.90;;;;;;5032724;28;20045;-85
2021/11/04 02:16:51;;;;;;;18.42;12.63;;;6.80;99.90;;;;;;5015393;28;20405;-86
2021/11/04 02:19:48;;;;;;;18.95;12.82;;;6.80;99.90;;;;;;5015463;28;20049;-86
2021/11/04 02:22:27;;;;;;;17.08;12.30;;;6.80;99.90;;;;;;5015982;28;20564;-85
2021/11/04 02:25:12;;;;;;;16.90;12.10;;;6.80;99.90;;;;;;5033206;28;20498;-85
2021/11/04 02:27:42;;;;;;;19.20;10.90;;;6.80;99.90;;;;;;5032760;28;20049;-85
2021/11/04 02:30:09;;;;;;;19.40;12.43;;;6.80;99.90;;;;;;5018361;28;20046;-86
2021/11/04 02:32:37;;;;;;;16.70;11.05;;;6.80;99.90;;;;;;5036734;28;20500;-85
2021/11/04 02:35:05;;;;;;;15.73;11.18;;;6.90;99.90;;;;;;5019484;28;20053;-85
2021/11/04 02:37:32;;;;;;;19.95;12.05;;;6.90;99.90;;;;;;5019414;28;20497;-85
2021/11/04 02:40:00;;;;;;;13.70;10.07;;;6.80;99.90;;;;;;5036945;28;20049;-85
2021/11/04 02:42:27;;;;;;;13.68;10.13;;;6.80;99.90;;;;;;5019212;28;20055;-85
2021/11/04 02:44:55;;;;;;;11.68;9.65;;;6.80;99.90;;;;;;5036726;28;20494;-85
2021/11/04 02:47:22;;;;;;;12.07;9.32;;;6.90;99.90;;;;;;5018713;28;20054;-85
2021/11/04 02:49:51;;;;;;;10.13;8.18;;;6.90;99.90;;;;;;5019447;28;20056;-85
2021/11/04 02:52:18;;;;;;;11.45;9.18;;;6.90;99.90;;;;;;5019062;28;20084;-85
2021/11/04 02:54:59;;;;;;;11.93;8.73;;;7.00;99.90;;;;;;5019084;28;20405;-85
2021/11/04 02:57:26;;;;;;;10.25;8.55;;;6.90;99.90;;;;;;5019004;28;20406;-85
2021/11/04 02:59:53;;;;;;;9.20;8.30;;;6.90;99.90;;;;;;5018828;28;20052;-85
2021/11/04 03:02:20;;;;;;;11.07;8.82;;;6.90;99.90;;;;;;5035932;28;20059;-85
2021/11/04 03:04:47;;;;;;;16.75;10.75;;;6.90;99.90;;;;;;5036244;28;20589;-84
2021/11/04 03:07:13;;;;;;;16.58;11.43;;;6.80;99.90;;;;;;5019230;28;20616;-85
2021/11/04 03:09:40;;;;;;;10.60;9.27;;;6.70;99.90;;;;;;5035189;28;20053;-85
2021/11/04 03:12:08;;;;;;;11.60;9.20;;;6.70;99.90;;;;;;5038709;28;20045;-85
2021/11/04 03:14:35;;;;;;;13.75;9.60;;;6.80;99.90;;;;;;5035940;28;20050;-85
2021/11/04 03:17:05;;;;;;;10.82;8.88;;;6.90;99.90;;;;;;5018609;28;20053;-85
2021/11/04 03:19:32;;;;;;;15.05;10.77;;;6.90;99.90;;;;;;5036059;28;20050;-85
2021/11/04 03:22:01;;;;;;;11.73;8.77;;;6.80;99.90;;;;;;5036241;28;20050;-85
2021/11/04 03:24:28;;;;;;;9.82;8.55;;;6.90;99.90;;;;;;5018433;28;20424;-85
2021/11/04 03:26:59;;;;;;;14.43;9.38;;;6.90;99.90;;;;;;5035992;28;20049;-85
2021/11/04 03:29:28;;;;;;;12.15;9.40;;;6.80;99.90;;;;;;5035961;28;20060;-86
2021/11/04 03:31:56;;;;;;;12.23;9.55;;;6.80;99.90;;;;;;5018760;28;20144;-86
2021/11/04 03:34:24;;;;;;;13.18;9.50;;;6.70;99.90;;;;;;5018593;28;20080;-86
2021/11/04 03:36:52;;;;;;;11.57;8.65;;;6.70;99.90;;;;;;5018712;28;20041;-86
2021/11/04 03:39:21;;;;;;;10.85;9.75;;;6.70;99.90;;;;;;5018394;28;20063;-85
2021/11/04 03:41:53;;;;;;;13.32;9.55;;;6.80;99.90;;;;;;5017294;28;20052;-85
2021/11/04 03:44:22;;;;;;;10.80;8.63;;;6.90;99.90;;;;;;5018411;28;20055;-86
2021/11/04 03:46:51;;;;;;;10.80;8.07;;;6.90;99.90;;;;;;5018540;28;20103;-86
2021/11/04 03:49:19;;;;;;;14.40;9.85;;;6.90;99.90;;;;;;5018273;28;20045;-86
2021/11/04 03:51:49;;;;;;;13.45;9.32;;;6.80;99.90;;;;;;5018329;28;20390;-86
2021/11/04 03:54:22;;;;;;;8.70;7.80;;;6.80;99.90;;;;;;5035136;28;20490;-86
2021/11/04 03:56:50;;;;;;;10.23;7.90;;;6.80;99.90;;;;;;5017896;28;20049;-86
2021/11/04 03:59:17;;;;;;;12.10;8.45;;;6.90;99.90;;;;;;5035555;28;20320;-87
2021/11/04 04:01:45;;;;;;;10.80;9.02;;;6.90;99.90;;;;;;5018140;28;20477;-86
2021/11/04 04:04:12;;;;;;;12.00;7.80;;;6.90;99.90;;;;;;5017781;28;20056;-86
2021/11/04 04:06:38;;;;;;;9.93;7.95;;;7.00;99.90;;;;;;5017701;28;20509;-86
2021/11/04 04:09:07;;;;;;;14.73;9.30;;;6.90;99.90;;;;;;5035365;28;20053;-86
2021/11/04 04:11:34;;;;;;;10.45;9.20;;;6.90;99.90;;;;;;5035117;28;20045;-86
2021/11/04 04:14:00;;;;;;;11.02;8.30;;;6.90;99.90;;;;;;5018251;28;20065;-86
2021/11/04 04:16:27;;;;;;;12.95;8.18;;;6.90;99.90;;;;;;5017500;28;20092;-86
2021/11/04 04:18:54;;;;;;;12.10;7.55;;;6.90;99.90;;;;;;5017391;28;20060;-86
2021/11/04 04:21:21;;;;;;;8.55;7.63;;;6.90;99.90;;;;;;5034960;28;20129;-86
2021/11/04 04:23:47;;;;;;;10.68;8.60;;;7.00;99.90;;;;;;5035088;28;20478;-86
2021/11/04 04:26:14;;;;;;;8.27;7.32;;;6.90;99.90;;;;;;5041995;28;20109;-86
2021/11/04 04:28:41;;;;;;;9.68;7.53;;;6.90;99.90;;;;;;5028026;28;20081;-85
2021/11/04 04:31:08;;;;;;;8.50;6.82;;;6.90;99.90;;;;;;5035055;28;20417;-86
2021/11/04 04:33:35;;;;;;;7.10;6.40;;;6.90;99.90;;;;;;5034965;28;20053;-85
2021/11/04 04:36:02;;;;;;;7.55;6.20;;;6.90;99.90;;;;;;5016976;28;20409;-86
2021/11/04 04:38:28;;;;;;;9.45;6.43;;;6.90;99.90;;;;;;5017467;28;20049;-86
2021/11/04 04:40:55;;;;;;;9.73;6.72;;;6.90;99.90;;;;;;5017673;28;20048;-85
2021/11/04 04:43:23;;;;;;;7.00;6.30;;;6.90;99.90;;;;;;5017446;28;20075;-86
2021/11/04 04:45:49;;;;;;;10.80;8.75;;;6.80;99.90;;;;;;5016818;28;20054;-85
2021/11/04 04:48:16;;;;;;;7.22;6.53;;;6.70;99.90;;;;;;5034660;28;20413;-85
2021/11/04 04:50:43;;;;;;;12.85;9.32;;;6.70;99.90;;;;;;5034512;28;20041;-86
2021/11/04 04:53:10;;;;;;;9.88;7.25;;;6.70;99.90;;;;;;5034460;28;20053;-86
2021/11/04 04:55:37;;;;;;;10.57;8.45;;;6.80;99.90;;;;;;5016912;28;20041;-86
2021/11/04 04:58:06;;;;;;;6.65;6.03;;;6.80;99.90;;;;;;5034477;28;20045;-85
2021/11/04 05:00:34;;;;;;;7.40;6.20;;;6.80;99.90;;;;;;5016851;28;20055;-86
2021/11/04 05:03:01;;;;;;;7.65;6.47;;;6.80;99.90;;;;;;5017016;28;20050;-86
2021/11/04 05:05:27;;;;;;;7.07;6.38;;;6.80;99.90;;;;;;5017144;28;20528;-86
2021/11/04 05:07:54;;;;;;;7.80;7.00;;;6.90;99.90;;;;;;5016892;28;20502;-86
2021/11/04 05:10:21;;;;;;;8.40;7.32;;;6.90;99.90;;;;;;5016550;28;20068;-86
2021/11/04 05:12:48;;;;;;;6.50;5.95;;;6.90;99.90;;;;;;5034165;28;20076;-86
2021/11/04 05:15:15;;;;;;;8.73;7.13;;;6.90;99.90;;;;;;5016932;28;20099;-86
2021/11/04 05:17:43;;;;;;;9.15;7.63;;;6.90;99.90;;;;;;5016573;28;20049;-86
2021/11/04 05:20:10;;;;;;;9.50;7.93;;;6.90;99.90;;;;;;5033981;28;20124;-85
2021/11/04 05:22:38;;;;;;;8.75;7.85;;;6.90;99.90;;;;;;5016490;28;20081;-85
2021/11/04 05:25:06;;;;;;;8.40;7.55;;;6.90;99.90;;;;;;5033645;28;20046;-85
2021/11/04 05:27:33;;;;;;;11.18;9.93;;;6.90;99.90;;;;;;5016148;28;20053;-85
2021/11/04 05:30:01;;;;;;;13.02;10.18;;;6.90;99.90;;;;;;5033586;28;20502;-86
2021/11/04 05:32:28;;;;;;;15.43;11.15;;;6.90;99.90;;;;;;5033104;28;20049;-85
2021/11/04 05:34:55;;;;;;;13.80;9.82;;;6.80;99.90;;;;;;5033549;28;20067;-85
2021/11/04 05:37:21;;;;;;;25.17;12.35;;;6.80;99.90;;;;;;5016159;28;20045;-85
2021/11/04 05:39:48;;;;;;;22.35;11.30;;;6.80;99.90;;;;;;5016122;28;20045;-85
2021/11/04 05:42:15;;;;;;;26.55;12.25;;;6.90;99.90;;;;;;5016358;28;20056;-85
2021/11/04 05:44:42;;;;;;;25.08;12.55;;;6.90;99.90;;;;;;5034501;28;20054;-85
2021/11/04 05:47:08;;;;;;;18.48;12.00;;;7.00;99.90;;;;;;5033666;28;20076;-85
2021/11/04 05:49:38;;;;;;;31.35;10.70;;;7.00;99.90;;;;;;5016286;28;20175;-86
2021/11/04 05:52:05;;;;;;;23.63;10.00;;;7.00;99.90;;;;;;5015876;28;20436;-85
2021/11/04 05:54:32;;;;;;;19.55;9.65;;;6.90;99.90;;;;;;5015399;28;20509;-85
2021/11/04 05:57:00;;;;;;;17.52;13.90;;;7.00;99.90;;;;;;5015390;28;20680;-85
2021/11/04 05:59:27;;;;;;;17.98;13.48;;;7.00;99.90;;;;;;5032973;28;20049;-85
2021/11/04 06:01:54;;;;;;;22.58;14.63;;;7.10;99.90;;;;;;5033043;28;20049;-85
2021/11/04 06:04:21;;;;;;;17.45;11.93;;;7.00;99.90;;;;;;5032314;28;20137;-86
2021/11/04 06:06:48;;;;;;;19.15;9.95;;;7.00;99.90;;;;;;5015302;28;20053;-85
2021/11/04 06:09:15;;;;;;;14.93;10.23;;;7.00;99.90;;;;;;5032686;28;20045;-85
2021/11/04 06:11:42;;;;;;;14.02;10.40;;;7.00;99.90;;;;;;5033040;28;20049;-85
2021/11/04 06:14:09;;;;;;;20.65;9.95;;;7.10;99.90;;;;;;5032807;28;20048;-85
2021/11/04 06:16:36;;;;;;;15.02;10.63;;;7.10;99.90;;;;;;5015256;28;20049;-85
2021/11/04 06:19:03;;;;;;;14.02;10.23;;;7.10;99.90;;;;;;5015091;28;20138;-85
2021/11/04 06:21:30;;;;;;;15.15;10.27;;;7.10;99.90;;;;;;5014830;28;20411;-85
2021/11/04 06:23:57;;;;;;;13.55;7.47;;;7.10;99.90;;;;;;5015221;28;20049;-84
2021/11/04 06:26:24;;;;;;;10.00;7.90;;;7.10;99.90;;;;;;5032464;28;20478;-84
2021/11/04 06:28:50;;;;;;;10.80;8.73;;;7.00;99.90;;;;;;5015143;28;20053;-84
2021/11/04 06:31:17;;;;;;;8.85;7.20;;;7.10;99.90;;;;;;5032704;28;20128;-84
2021/11/04 06:33:44;;;;;;;9.27;7.55;;;7.10;99.90;;;;;;5017523;28;20586;-84
2021/11/04 06:36:11;;;;;;;11.80;9.30;;;7.10;99.90;;;;;;5032823;28;20085;-84
2021/11/04 06:38:38;;;;;;;12.43;7.72;;;7.10;99.90;;;;;;5015063;28;20053;-84
2021/11/04 06:41:05;;;;;;;18.25;13.40;;;7.00;99.90;;;;;;5032501;28;20476;-85
2021/11/04 06:43:32;;;;;;;74.43;47.08;;;7.00;99.90;;;;;;5015083;28;20049;-85
2021/11/04 06:46:00;;;;;;;146.40;92.97;;;7.10;99.90;;;;;;5032409;28;20047;-84
2021/11/04 06:48:46;;;;;;;107.45;68.03;;;7.10;99.90;;;;;;5014843;28;20490;-84
2021/11/04 06:51:17;;;;;;;73.93;54.65;;;7.10;99.90;;;;;;5032417;28;20046;-84
2021/11/04 06:53:55;;;;;;;26.50;20.50;;;7.10;99.90;;;;;;5032598;28;20049;-84
2021/11/04 06:56:23;;;;;;;18.75;16.08;;;7.10;99.90;;;;;;5032221;28;20148;-84
2021/11/04 06:58:53;;;;;;;35.80;31.58;;;7.10;99.90;;;;;;5015430;28;20096;-84
2021/11/04 07:01:22;;;;;;;66.82;50.20;;;7.10;99.90;;;;;;5029504;28;20049;-84
2021/11/04 07:04:12;;;;;;;40.17;28.45;;;7.10;99.90;;;;;;5037441;28;20113;-84
2021/11/04 07:06:47;;;;;;;27.58;19.52;;;7.10;99.90;;;;;;5014734;28;20581;-84
2021/11/04 07:09:14;;;;;;;15.90;10.73;;;7.10;99.90;;;;;;5032149;28;20045;-85
2021/11/04 07:11:42;;;;;;;18.00;12.35;;;7.10;99.90;;;;;;5032284;28;20050;-84
2021/11/04 07:14:08;;;;;;;20.73;12.13;;;7.10;99.90;;;;;;5032119;28;20057;-84
2021/11/04 07:16:35;;;;;;;17.42;13.30;;;7.10;99.90;;;;;;5017844;28;20049;-84
2021/11/04 07:19:02;;;;;;;15.30;13.00;;;7.00;99.90;;;;;;5036026;28;20045;-84
2021/11/04 07:21:47;;;;;;;19.58;15.45;;;7.00;99.90;;;;;;5035893;28;20522;-84
2021/11/04 07:24:26;;;;;;;17.90;14.07;;;7.10;99.90;;;;;;5035609;28;20063;-84
2021/11/04 07:26:55;;;;;;;10.65;9.20;;;7.10;99.90;;;;;;5018402;28;20048;-85
2021/11/04 07:29:33;;;;;;;12.77;8.00;;;7.10;99.90;;;;;;5035781;28;20093;-85
2021/11/04 07:32:01;;;;;;;16.00;7.88;;;7.00;99.90;;;;;;5035702;28;20486;-84
2021/11/04 07:34:29;;;;;;;9.70;7.72;;;6.90;99.90;;;;;;5017788;28;20413;-84
2021/11/04 07:36:56;;;;;;;9.80;5.90;;;7.00;99.90;;;;;;5035519;28;20049;-85
2021/11/04 07:39:23;;;;;;;9.52;7.18;;;6.90;99.90;;;;;;5017978;28;20128;-85
2021/11/04 07:41:51;;;;;;;9.23;5.75;;;6.90;99.90;;;;;;5018161;28;20490;-84
2021/11/04 07:44:17;;;;;;;10.05;7.15;;;6.90;99.90;;;;;;5017908;28;20053;-84
2021/11/04 07:46:44;;;;;;;9.20;5.68;;;6.80;99.90;;;;;;5035012;28;20438;-84
2021/11/04 07:49:11;;;;;;;6.60;5.43;;;6.90;99.90;;;;;;5017908;28;20053;-85
2021/11/04 07:51:37;;;;;;;7.72;6.57;;;6.80;99.90;;;;;;5017531;28;20434;-85
2021/11/04 07:54:05;;;;;;;7.43;5.00;;;6.80;99.90;;;;;;5017813;28;20063;-84
2021/11/04 07:56:34;;;;;;;6.88;5.47;;;6.80;99.90;;;;;;5034621;28;20136;-84
2021/11/04 07:59:05;;;;;;;9.48;5.00;;;6.90;99.90;;;;;;5018021;28;20549;-84
2021/11/04 08:01:32;;;;;;;7.60;5.57;;;6.90;99.90;;;;;;5017245;28;20048;-84
2021/11/04 08:03:59;;;;;;;7.13;5.85;;;6.90;99.90;;;;;;5017234;28;20049;-84
2021/11/04 08:06:25;;;;;;;7.43;5.32;;;6.90;99.90;;;;;;5017021;28;20060;-83
2021/11/04 08:08:52;;;;;;;6.97;5.55;;;6.90;99.90;;;;;;5017225;28;20486;-84
2021/11/04 08:11:20;;;;;;;7.53;4.53;;;6.90;99.90;;;;;;5034633;28;20092;-84
2021/11/04 08:13:47;;;;;;;5.30;4.25;;;6.90;99.90;;;;;;5017024;28;20052;-84
2021/11/04 08:16:14;;;;;;;8.95;7.90;;;6.90;99.90;;;;;;5017397;28;20140;-84
2021/11/04 08:18:40;;;;;;;10.10;8.77;;;6.90;99.90;;;;;;5050699;28;20045;-84
2021/11/04 08:21:07;;;;;;;9.07;6.38;;;7.00;99.90;;;;;;5037940;28;20049;-84
2021/11/04 08:23:34;;;;;;;7.85;5.55;;;7.00;99.90;;;;;;5016914;28;20045;-84
2021/11/04 08:26:00;;;;;;;4.53;4.13;;;7.00;99.90;;;;;;5016456;28;20486;-83
2021/11/04 08:28:27;;;;;;;4.78;4.30;;;7.00;99.90;;;;;;5033644;28;20397;-84
2021/11/04 08:30:54;;;;;;;4.22;3.83;;;7.00;99.90;;;;;;5016668;28;20053;-84
2021/11/04 08:33:21;;;;;;;3.00;2.80;;;7.00;99.90;;;;;;5034080;28;20498;-84
2021/11/04 08:35:48;;;;;;;2.90;2.70;;;7.00;99.90;;;;;;5016578;28;20056;-84
2021/11/04 08:38:18;;;;;;;5.50;3.22;;;7.10;99.90;;;;;;5016919;28;20057;-84
2021/11/04 08:40:44;;;;;;;3.75;2.90;;;7.00;99.90;;;;;;5033760;28;20497;-84
2021/11/04 08:43:12;;;;;;;9.30;3.80;;;7.10;99.90;;;;;;5016593;28;20049;-83
2021/11/04 08:45:39;;;;;;;11.23;4.10;;;7.10;99.90;;;;;;5016136;28;20128;-84
2021/11/04 08:48:05;;;;;;;14.75;9.80;;;7.10;99.90;;;;;;5016352;28;20053;-84
2021/11/04 08:50:32;;;;;;;13.55;8.27;;;7.10;99.90;;;;;;5016069;28;20049;-84
2021/11/04 08:52:59;;;;;;;10.07;6.35;;;7.00;99.90;;;;;;5016487;28;20052;-84
2021/11/04 08:55:26;;;;;;;6.35;5.53;;;7.10;99.90;;;;;;5033661;28;20059;-84
2021/11/04 08:57:54;;;;;;;5.50;4.25;;;7.10;99.90;;;;;;5033808;28;20081;-85
2021/11/04 09:00:21;;;;;;;3.88;3.38;;;7.20;99.90;;;;;;5015740;28;20128;-84
2021/11/04 09:02:48;;;;;;;5.00;3.85;;;7.20;99.90;;;;;;5016046;28;20538;-83
2021/11/04 09:05:15;;;;;;;3.92;3.60;;;7.20;99.90;;;;;;5015810;28;20049;-84
2021/11/04 09:07:43;;;;;;;4.05;3.45;;;7.20;99.90;;;;;;5016146;28;20467;-84
2021/11/04 09:10:12;;;;;;;4.65;4.20;;;7.20;99.90;;;;;;5015637;28;20075;-84
2021/11/04 09:12:39;;;;;;;4.10;3.80;;;7.20;99.90;;;;;;5033323;28;20076;-84
2021/11/04 09:15:10;;;;;;;4.15;3.75;;;7.30;99.90;;;;;;5033097;28;20060;-84
2021/11/04 09:17:37;;;;;;;3.40;3.20;;;7.30;99.90;;;;;;5015723;28;20057;-84
2021/11/04 09:20:05;;;;;;;5.10;4.07;;;7.40;99.90;;;;;;5032969;28;20375;-83
2021/11/04 09:22:33;;;;;;;3.47;3.17;;;7.30;99.90;;;;;;5015708;28;20056;-84
2021/11/04 09:25:01;;;;;;;2.97;2.78;;;7.20;99.90;;;;;;5033133;28;20052;-84
2021/11/04 09:27:28;;;;;;;2.80;2.60;;;7.20;99.90;;;;;;5032922;28;20414;-84
2021/11/04 09:29:56;;;;;;;3.10;2.80;;;7.20;99.90;;;;;;5033190;28;20045;-84
2021/11/04 09:32:24;;;;;;;5.80;2.40;;;7.30;99.90;;;;;;5033052;28;20057;-84
2021/11/04 09:34:56;;;;;;;2.25;2.13;;;7.30;99.90;;;;;;5021614;28;20053;-84
2021/11/04 09:37:23;;;;;;;2.45;1.02;;;7.30;99.90;;;;;;5045618;28;20045;-84
2021/11/04 09:39:49;;;;;;;1.10;1.00;;;7.10;99.90;;;;;;5014673;28;20442;-83
2021/11/04 09:42:18;;;;;;;1.05;0.98;;;7.10;99.90;;;;;;5015371;28;20049;-84
2021/11/04 09:44:50;;;;;;;1.23;1.13;;;7.00;99.90;;;;;;5032781;28;20136;-84
2021/11/04 09:47:25;;;;;;;0.95;0.70;;;7.00;99.90;;;;;;5015301;28;20069;-83
2021/11/04 09:49:53;;;;;;;1.20;1.20;;;6.90;99.90;;;;;;5015359;28;20458;-84
2021/11/04 09:52:26;;;;;;;1.88;1.77;;;6.90;99.90;;;;;;5032612;28;20045;-83
2021/11/04 09:54:54;;;;;;;2.00;1.80;;;7.00;99.90;;;;;;5015240;28;20049;-83
2021/11/04 09:57:22;;;;;;;2.85;1.83;;;7.00;99.90;;;;;;5015012;28;20136;-83
2021/11/04 09:59:50;;;;;;;1.17;1.02;;;7.00;99.90;;;;;;5032636;28;20052;-84
2021/11/04 10:02:22;;;;;;;2.22;1.55;;;7.10;99.90;;;;;;5014995;28;20589;-84
2021/11/04 10:04:50;;;;;;;1.50;0.90;;;7.10;99.90;;;;;;5032355;28;20060;-84
2021/11/04 10:07:19;;;;;;;2.03;0.88;;;7.00;99.90;;;;;;5032630;28;20081;-84
2021/11/04 10:10:02;;;;;;;2.38;1.70;;;7.00;99.90;;;;;;5014952;28;20056;-84
2021/11/04 10:12:29;;;;;;;2.10;1.90;;;7.00;99.90;;;;;;5032505;28;20450;-83
2021/11/04 10:15:11;;;;;;;3.95;2.70;;;7.00;99.90;;;;;;5032319;28;20045;-84
2021/11/04 10:17:38;;;;;;;5.65;4.28;;;7.00;99.90;;;;;;5032515;28;20413;-84
2021/11/04 10:20:17;;;;;;;7.47;6.68;;;7.00;99.90;;;;;;5032412;28;20140;-83
2021/11/04 10:23:01;;;;;;;2.53;2.33;;;7.00;99.90;;;;;;5032253;28;20055;-83
2021/11/04 10:25:28;;;;;;;2.08;0.90;;;7.00;99.90;;;;;;5032298;28;20079;-84
2021/11/04 10:27:55;;;;;;;1.60;0.50;;;7.00;99.90;;;;;;5030898;28;20064;-83
2021/11/04 10:30:39;;;;;;;0.45;0.40;;;7.00;99.90;;;;;;5032103;28;20085;-84
2021/11/04 10:33:36;;;;;;;0.90;0.90;;;7.00;99.90;;;;;;5032336;28;20481;-84
2021/11/04 10:36:08;;;;;;;3.13;1.10;;;6.90;99.90;;;;;;5014780;28;20057;-84
2021/11/04 10:38:44;;;;;;;1.63;1.38;;;6.90;99.90;;;;;;5014625;28;20104;-84
2021/11/04 10:41:20;;;;;;;1.23;0.60;;;7.00;99.90;;;;;;5014708;28;20053;-84
2021/11/04 10:43:49;;;;;;;1.80;0.68;;;7.00;99.90;;;;;;5014933;28;20051;-83
2021/11/04 10:46:21;;;;;;;0.70;0.70;;;7.10;99.90;;;;;;5015017;28;20152;-83
2021/11/04 10:48:56;;;;;;;1.75;0.80;;;7.10;99.90;;;;;;5014609;28;20136;-83
2021/11/04 10:51:23;;;;;;;1.23;0.93;;;7.00;99.90;;;;;;5036048;28;20128;-84
2021/11/04 10:54:00;;;;;;;0.82;0.52;;;7.00;99.90;;;;;;5036517;28;20323;-83
2021/11/04 10:56:32;;;;;;;0.47;0.47;;;6.90;99.90;;;;;;5018605;28;20483;-84
2021/11/04 10:59:12;;;;;;;0.77;0.77;;;6.80;99.90;;;;;;5035746;28;20049;-84
2021/11/04 11:01:46;;;;;;;2.13;1.77;;;6.70;99.90;;;;;;5018368;28;20058;-84
2021/11/04 11:04:17;;;;;;;2.45;1.40;;;6.80;99.90;;;;;;5018062;28;20053;-83
2021/11/04 11:06:46;;;;;;;1.05;1.05;;;6.70;99.90;;;;;;5030053;28;20151;-83
2021/11/04 11:09:16;;;;;;;1.85;1.75;;;6.70;99.90;;;;;;5035608;28;20056;-83
2021/11/04 11:11:45;;;;;;;2.22;2.13;;;6.80;99.90;;;;;;5036057;28;20508;-83
2021/11/04 11:14:13;;;;;;;2.55;1.67;;;6.90;99.90;;;;;;5017891;28;20091;-83
2021/11/04 11:16:45;;;;;;;1.80;1.70;;;6.90;99.90;;;;;;5035400;28;20049;-83
2021/11/04 11:19:16;;;;;;;1.20;1.20;;;7.00;99.90;;;;;;5017970;28;20145;-84
2021/11/04 11:21:44;;;;;;;0.70;0.70;;;7.10;99.90;;;;;;5035390;28;20124;-83
2021/11/04 11:24:14;;;;;;;0.70;0.70;;;7.20;99.90;;;;;;5018061;28;20059;-83
2021/11/04 11:26:43;;;;;;;0.85;0.57;;;7.20;99.90;;;;;;5035583;28;20053;-84
2021/11/04 11:29:10;;;;;;;0.80;0.80;;;7.20;99.90;;;;;;5035307;28;20057;-84
2021/11/04 11:31:47;;;;;;;3.33;1.88;;;7.10;99.90;;;;;;5017759;28;20516;-84
2021/11/04 11:34:22;;;;;;;1.75;0.90;;;7.10;99.90;;;;;;5035076;28;20077;-83
2021/11/04 11:37:14;;;;;;;0.60;0.60;;;7.10;99.90;;;;;;5017769;28;20057;-85
2021/11/04 11:40:13;;;;;;;2.83;0.60;;;7.10;99.90;;;;;;5035508;28;20049;-84
2021/11/04 11:42:57;;;;;;;0.40;0.40;;;7.10;99.90;;;;;;5017490;28;20140;-84
2021/11/04 11:45:25;;;;;;;0.30;0.30;;;7.10;99.90;;;;;;5034949;28;20051;-84
2021/11/04 11:47:52;;;;;;;0.30;0.30;;;7.20;99.90;;;;;;5017604;28;20087;-83
2021/11/04 11:50:28;;;;;;;2.03;0.40;;;7.10;99.90;;;;;;5017480;28;20049;-84
2021/11/04 11:53:20;;;;;;;0.40;0.40;;;7.10;99.90;;;;;;5017742;28;20133;-84
2021/11/04 11:55:48;;;;;;;0.25;0.20;;;7.10;99.90;;;;;;5034907;28;20103;-84
2021/11/04 11:58:15;;;;;;;0.30;0.30;;;7.00;99.90;;;;;;5034776;28;20075;-85
2021/11/04 12:01:03;;;;;;;0.30;0.30;;;7.00;99.90;;;;;;5017628;28;20049;-84
2021/11/04 12:03:35;;;;;;;0.20;0.20;;;6.90;99.90;;;;;;5034440;28;20460;-84
2021/11/04 12:06:02;;;;;;;0.50;0.30;;;7.00;99.90;;;;;;5034790;28;20052;-84
2021/11/04 12:08:29;;;;;;;0.20;0.20;;;7.00;99.90;;;;;;5035438;28;20416;-84
2021/11/04 12:10:56;;;;;;;0.40;0.40;;;6.90;99.90;;;;;;5032940;28;20109;-84
2021/11/04 12:13:34;;;;;;;1.50;0.45;;;6.90;99.90;;;;;;5017666;28;20136;-84
2021/11/04 12:16:16;;;;;;;0.52;0.35;;;6.90;99.90;;;;;;5017155;28;20059;-84
2021/11/04 12:19:01;;;;;;;0.30;0.30;;;6.80;99.90;;;;;;5017289;28;20056;-85
2021/11/04 12:21:33;;;;;;;0.40;0.40;;;6.90;99.90;;;;;;5017078;28;20053;-84
2021/11/04 12:24:07;;;;;;;0.68;0.40;;;7.00;99.90;;;;;;5033743;28;20049;-84
2021/11/04 12:26:36;;;;;;;0.50;0.50;;;7.00;99.90;;;;;;5031376;28;20430;-84
2021/11/04 12:29:07;;;;;;;0.77;0.63;;;7.10;99.90;;;;;;5034481;28;20057;-84
2021/11/04 12:31:39;;;;;;;0.38;0.38;;;7.20;99.90;;;;;;5017150;28;20085;-84
2021/11/04 12:34:06;;;;;;;0.40;0.40;;;7.30;99.90;;;;;;5016517;28;20049;-84
2021/11/04 12:36:38;;;;;;;1.67;0.30;;;7.20;99.90;;;;;;5033913;28;20103;-84
2021/11/04 12:39:08;;;;;;;0.20;0.20;;;7.40;99.90;;;;;;5033961;28;20053;-84
2021/11/04 12:41:34;;;;;;;0.35;0.35;;;7.50;99.90;;;;;;5016624;28;20413;-84
2021/11/04 12:44:05;;;;;;;1.20;0.98;;;7.50;99.90;;;;;;5016522;28;20060;-84
2021/11/04 12:46:33;;;;;;;0.90;0.90;;;7.50;99.90;;;;;;5016492;28;20076;-84
2021/11/04 12:49:07;;;;;;;7.65;5.75;;;7.60;99.90;;;;;;5017135;28;20053;-84
2021/11/04 12:51:49;;;;;;;11.52;7.00;;;7.60;99.90;;;;;;5033883;28;20095;-84
2021/11/04 12:54:24;;;;;;;16.63;11.68;;;7.60;99.90;;;;;;5033918;28;20088;-84
2021/11/04 12:56:58;;;;;;;2.70;2.50;;;7.60;99.90;;;;;;5033828;28;20418;-84
2021/11/04 12:59:43;;;;;;;1.42;0.85;;;7.60;99.90;;;;;;5016118;28;20132;-84
2021/11/04 13:02:16;;;;;;;3.25;2.58;;;7.60;99.90;;;;;;5015922;28;20053;-84